sensor_id;sensor_type;location;lat;lon;timestamp;P1;P2;P0
46885;PMS5003;32622;48.202;11.326;2023-07-29T13:09:35;12;12;
46885;PMS5003;32622;48.202;11.326;2023-07-29T13:11:37;10;10;
46885;PMS5003;32622;48.202;11.326;2023-07-29T13:13:40;12;12;
46885;PMS5003;32622;48.202;11.326;2023-07-29T13:15:42;11;11;
46885;PMS5003;32622;48.202;11.326;2023-07-29T13:17:44;10;10;
46885;PMS5003;32622;48.202;11.326;2023-07-29T13:19:46;11;11;
46885;PMS5003;32622;48.202;11.326;2023-07-29T13:21:48;10;10;
46885;PMS5003;32622;48.202;11.326;2023-07-29T13:23:50;10;10;
46885;PMS5003;32622;48.202;11.326;2023-07-29T13:25:53;9;9;
46885;PMS5003;32622;48.202;11.326;2023-07-29T13:27:55;8;8;
46885;PMS5003;32622;48.202;11.326;2023-07-29T13:29:57;8;8;
46885;PMS5003;32622;48.202;11.326;2023-07-29T13:31:59;9;9;
46885;PMS5003;32622;48.202;11.326;2023-07-29T13:34:02;8;8;
46885;PMS5003;32622;48.202;11.326;2023-07-29T13:36:05;8;8;
46885;PMS5003;32622;48.202;11.326;2023-07-29T13:38:07;8;8;
46885;PMS5003;32622;48.202;11.326;2023-07-29T13:40:09;7;7;
46885;PMS5003;32622;48.202;11.326;2023-07-29T13:42:11;7;7;
46885;PMS5003;32622;48.202;11.326;2023-07-29T13:44:13;8;8;
46885;PMS5003;32622;48.202;11.326;2023-07-29T13:46:15;7;7;
46885;PMS5003;32622;48.202;11.326;2023-07-29T13:48:18;7;7;
46885;PMS5003;32622;48.202;11.326;2023-07-29T13:50:20;7;7;
46885;PMS5003;32622;48.202;11.326;2023-07-29T13:52:22;7;7;
46885;PMS5003;32622;48.202;11.326;2023-07-29T13:54:24;7;7;
46885;PMS5003;32622;48.202;11.326;2023-07-29T13:56:26;7;7;
46885;PMS5003;32622;48.202;11.326;2023-07-29T13:58:28;7;7;
46885;PMS5003;32622;48.202;11.326;2023-07-29T14:00:30;7;7;
46885;PMS5003;32622;48.202;11.326;2023-07-29T14:02:32;7;7;
46885;PMS5003;32622;48.202;11.326;2023-07-29T14:04:35;7;7;
46885;PMS5003;32622;48.202;11.326;2023-07-29T14:06:37;7;7;
46885;PMS5003;32622;48.202;11.326;2023-07-29T14:08:39;7;7;
46885;PMS5003;32622;48.202;11.326;2023-07-29T14:10:41;7;7;
46885;PMS5003;32622;48.202;11.326;2023-07-29T14:12:43;7;7;
46885;PMS5003;32622;48.202;11.326;2023-07-29T14:14:46;7;7;
46885;PMS5003;32622;48.202;11.326;2023-07-29T14:16:48;7;7;
46885;PMS5003;32622;48.202;11.326;2023-07-29T14:18:50;7;7;
46885;PMS5003;32622;48.202;11.326;2023-07-29T14:20:52;7;7;
46885;PMS5003;32622;48.202;11.326;2023-07-29T14:22:54;7;7;
46885;PMS5003;32622;48.202;11.326;2023-07-29T14:24:56;8;8;
46885;PMS5003;32622;48.202;11.326;2023-07-29T14:26:58;8;8;
46885;PMS5003;32622;48.202;11.326;2023-07-29T14:29:00;8;8;
46885;PMS5003;32622;48.202;11.326;2023-07-29T14:31:02;8;8;
46885;PMS5003;32622;48.202;11.326;2023-07-29T14:33:05;8;8;
46885;PMS5003;32622;48.202;11.326;2023-07-29T14:35:07;8;8;
46885;PMS5003;32622;48.202;11.326;2023-07-29T14:37:09;9;8;
46885;PMS5003;32622;48.202;11.326;2023-07-29T14:39:11;9;8;
46885;PMS5003;32622;48.202;11.326;2023-07-29T14:41:13;9;8;
46885;PMS5003;32622;48.202;11.326;2023-07-29T14:43:16;10;9;
46885;PMS5003;32622;48.202;11.326;2023-07-29T14:45:18;10;9;
46885;PMS5003;32622;48.202;11.326;2023-07-29T14:47:20;10;9;
46885;PMS5003;32622;48.202;11.326;2023-07-29T14:49:22;9;8;
46885;PMS5003;32622;48.202;11.326;2023-07-29T14:51:24;9;8;
46885;PMS5003;32622;48.202;11.326;2023-07-29T14:53:26;9;8;
46885;PMS5003;32622;48.202;11.326;2023-07-29T14:55:28;9;8;
46885;PMS5003;32622;48.202;11.326;2023-07-29T14:57:31;9;8;
46885;PMS5003;32622;48.202;11.326;2023-07-29T14:59:33;9;8;
46885;PMS5003;32622;48.202;11.326;2023-07-29T15:01:35;11;9;
46885;PMS5003;32622;48.202;11.326;2023-07-29T15:03:37;11;9;
46885;PMS5003;32622;48.202;11.326;2023-07-29T15:05:39;11;9;
46885;PMS5003;32622;48.202;11.326;2023-07-29T15:07:41;11;9;
46885;PMS5003;32622;48.202;11.326;2023-07-29T15:09:43;12;10;
46885;PMS5003;32622;48.202;11.326;2023-07-29T15:11:46;12;10;
46885;PMS5003;32622;48.202;11.326;2023-07-29T15:13:48;12;11;
46885;PMS5003;32622;48.202;11.326;2023-07-29T15:15:50;12;11;
46885;PMS5003;32622;48.202;11.326;2023-07-29T15:17:52;12;11;
46885;PMS5003;32622;48.202;11.326;2023-07-29T15:19:55;12;11;
46885;PMS5003;32622;48.202;11.326;2023-07-29T15:21:57;12;11;
46885;PMS5003;32622;48.202;11.326;2023-07-29T15:23:59;12;11;
46885;PMS5003;32622;48.202;11.326;2023-07-29T15:26:01;12;10;
46885;PMS5003;32622;48.202;11.326;2023-07-29T15:28:03;12;10;
46885;PMS5003;32622;48.202;11.326;2023-07-29T15:30:06;12;10;
46885;PMS5003;32622;48.202;11.326;2023-07-29T15:32:09;13;11;
46885;PMS5003;32622;48.202;11.326;2023-07-29T15:34:11;13;11;
46885;PMS5003;32622;48.202;11.326;2023-07-29T15:36:13;13;11;
46885;PMS5003;32622;48.202;11.326;2023-07-29T15:38:15;12;12;
46885;PMS5003;32622;48.202;11.326;2023-07-29T15:40:17;12;12;
46885;PMS5003;32622;48.202;11.326;2023-07-29T15:42:19;12;12;
46885;PMS5003;32622;48.202;11.326;2023-07-29T15:44:21;12;12;
46885;PMS5003;32622;48.202;11.326;2023-07-29T15:46:24;12;12;
46885;PMS5003;32622;48.202;11.326;2023-07-29T15:48:26;12;12;
46885;PMS5003;32622;48.202;11.326;2023-07-29T15:50:28;12;12;
46885;PMS5003;32622;48.202;11.326;2023-07-29T15:52:30;11;11;
46885;PMS5003;32622;48.202;11.326;2023-07-29T15:54:32;11;11;
46885;PMS5003;32622;48.202;11.326;2023-07-29T15:56:34;11;11;
46885;PMS5003;32622;48.202;11.326;2023-07-29T15:58:36;11;11;
46885;PMS5003;32622;48.202;11.326;2023-07-29T16:00:39;11;11;
46885;PMS5003;32622;48.202;11.326;2023-07-29T16:02:41;10;10;
46885;PMS5003;32622;48.202;11.326;2023-07-29T16:04:43;10;10;
46885;PMS5003;32622;48.202;11.326;2023-07-29T16:06:45;10;10;
46885;PMS5003;32622;48.202;11.326;2023-07-29T16:08:48;10;10;
46885;PMS5003;32622;48.202;11.326;2023-07-29T16:10:50;10;10;
46885;PMS5003;32622;48.202;11.326;2023-07-29T16:12:52;10;10;
46885;PMS5003;32622;48.202;11.326;2023-07-29T16:14:54;11;11;
46885;PMS5003;32622;48.202;11.326;2023-07-29T16:16:56;11;11;
46885;PMS5003;32622;48.202;11.326;2023-07-29T16:18:58;11;11;
46885;PMS5003;32622;48.202;11.326;2023-07-29T16:21:00;10;10;
46885;PMS5003;32622;48.202;11.326;2023-07-29T16:23:03;10;10;
46885;PMS5003;32622;48.202;11.326;2023-07-29T16:25:05;10;10;
46885;PMS5003;32622;48.202;11.326;2023-07-29T16:27:07;11;11;
46885;PMS5003;32622;48.202;11.326;2023-07-29T16:29:09;11;11;
46885;PMS5003;32622;48.202;11.326;2023-07-29T16:31:11;11;11;
46885;PMS5003;32622;48.202;11.326;2023-07-29T16:33:14;11;11;
46885;PMS5003;32622;48.202;11.326;2023-07-29T16:35:16;11;11;
46885;PMS5003;32622;48.202;11.326;2023-07-29T16:37:18;11;11;
46885;PMS5003;32622;48.202;11.326;2023-07-29T16:39:20;11;11;
46885;PMS5003;32622;48.202;11.326;2023-07-29T16:41:22;11;11;
46885;PMS5003;32622;48.202;11.326;2023-07-29T16:43:24;11;11;
46885;PMS5003;32622;48.202;11.326;2023-07-29T16:45:27;10;10;
46885;PMS5003;32622;48.202;11.326;2023-07-29T16:47:29;9;9;
46885;PMS5003;32622;48.202;11.326;2023-07-29T16:49:31;9;9;
46885;PMS5003;32622;48.202;11.326;2023-07-29T16:51:33;9;9;
46885;PMS5003;32622;48.202;11.326;2023-07-29T16:53:35;9;9;
46885;PMS5003;32622;48.202;11.326;2023-07-29T16:55:37;10;10;
46885;PMS5003;32622;48.202;11.326;2023-07-29T16:57:39;10;10;
46885;PMS5003;32622;48.202;11.326;2023-07-29T16:59:41;10;10;
46885;PMS5003;32622;48.202;11.326;2023-07-29T17:01:44;10;10;
46885;PMS5003;32622;48.202;11.326;2023-07-29T17:03:46;10;10;
46885;PMS5003;32622;48.202;11.326;2023-07-29T17:05:48;10;10;
46885;PMS5003;32622;48.202;11.326;2023-07-29T17:07:50;10;10;
46885;PMS5003;32622;48.202;11.326;2023-07-29T17:09:52;10;10;
46885;PMS5003;32622;48.202;11.326;2023-07-29T17:11:54;10;10;
46885;PMS5003;32622;48.202;11.326;2023-07-29T17:13:56;10;10;
46885;PMS5003;32622;48.202;11.326;2023-07-29T17:15:58;9;9;
46885;PMS5003;32622;48.202;11.326;2023-07-29T17:18:01;9;9;
46885;PMS5003;32622;48.202;11.326;2023-07-29T17:20:03;9;9;
46885;PMS5003;32622;48.202;11.326;2023-07-29T17:22:06;9;9;
46885;PMS5003;32622;48.202;11.326;2023-07-29T17:24:08;9;9;
46885;PMS5003;32622;48.202;11.326;2023-07-29T17:26:10;9;9;
46885;PMS5003;32622;48.202;11.326;2023-07-29T17:28:12;9;9;
46885;PMS5003;32622;48.202;11.326;2023-07-29T17:30:14;9;9;
46885;PMS5003;32622;48.202;11.326;2023-07-29T17:32:16;9;9;
46885;PMS5003;32622;48.202;11.326;2023-07-29T17:34:19;9;9;
46885;PMS5003;32622;48.202;11.326;2023-07-29T17:36:21;9;9;
46885;PMS5003;32622;48.202;11.326;2023-07-29T17:38:23;9;9;
46885;PMS5003;32622;48.202;11.326;2023-07-29T17:40:25;8;8;
46885;PMS5003;32622;48.202;11.326;2023-07-29T17:42:27;8;8;
46885;PMS5003;32622;48.202;11.326;2023-07-29T17:44:29;8;8;
46885;PMS5003;32622;48.202;11.326;2023-07-29T17:46:31;8;8;
46885;PMS5003;32622;48.202;11.326;2023-07-29T17:48:33;8;8;
46885;PMS5003;32622;48.202;11.326;2023-07-29T17:50:35;9;9;
46885;PMS5003;32622;48.202;11.326;2023-07-29T17:52:37;9;9;
46885;PMS5003;32622;48.202;11.326;2023-07-29T17:54:39;9;9;
46885;PMS5003;32622;48.202;11.326;2023-07-29T17:56:42;9;9;
46885;PMS5003;32622;48.202;11.326;2023-07-29T17:58:44;9;9;
46885;PMS5003;32622;48.202;11.326;2023-07-29T18:00:48;9;9;
46885;PMS5003;32622;48.202;11.326;2023-07-29T18:02:50;9;9;
46885;PMS5003;32622;48.202;11.326;2023-07-29T18:04:54;10;10;
46885;PMS5003;32622;48.202;11.326;2023-07-29T18:06:56;10;10;
46885;PMS5003;32622;48.202;11.326;2023-07-29T18:08:58;10;10;
46885;PMS5003;32622;48.202;11.326;2023-07-29T18:11:00;10;10;
46885;PMS5003;32622;48.202;11.326;2023-07-29T18:13:03;10;10;
46885;PMS5003;32622;48.202;11.326;2023-07-29T18:15:05;10;10;
46885;PMS5003;32622;48.202;11.326;2023-07-29T18:17:08;11;11;
46885;PMS5003;32622;48.202;11.326;2023-07-29T18:19:10;10;10;
46885;PMS5003;32622;48.202;11.326;2023-07-29T18:21:12;10;10;
46885;PMS5003;32622;48.202;11.326;2023-07-29T18:23:14;10;10;
46885;PMS5003;32622;48.202;11.326;2023-07-29T18:25:17;10;10;
46885;PMS5003;32622;48.202;11.326;2023-07-29T18:27:19;11;11;
46885;PMS5003;32622;48.202;11.326;2023-07-29T18:29:21;11;11;
46885;PMS5003;32622;48.202;11.326;2023-07-29T18:31:23;11;11;
46885;PMS5003;32622;48.202;11.326;2023-07-29T18:33:26;11;11;
46885;PMS5003;32622;48.202;11.326;2023-07-29T18:35:28;11;11;
46885;PMS5003;32622;48.202;11.326;2023-07-29T18:37:30;11;11;
46885;PMS5003;32622;48.202;11.326;2023-07-29T18:39:32;11;11;
46885;PMS5003;32622;48.202;11.326;2023-07-29T18:41:34;12;12;
46885;PMS5003;32622;48.202;11.326;2023-07-29T18:43:36;12;12;
46885;PMS5003;32622;48.202;11.326;2023-07-29T18:45:38;12;12;
46885;PMS5003;32622;48.202;11.326;2023-07-29T18:47:40;11;11;
46885;PMS5003;32622;48.202;11.326;2023-07-29T18:49:42;11;11;
46885;PMS5003;32622;48.202;11.326;2023-07-29T18:51:44;11;11;
46885;PMS5003;32622;48.202;11.326;2023-07-29T18:53:46;13;12;
46885;PMS5003;32622;48.202;11.326;2023-07-29T18:55:49;13;12;
46885;PMS5003;32622;48.202;11.326;2023-07-29T18:57:51;13;12;
46885;PMS5003;32622;48.202;11.326;2023-07-29T18:59:53;13;11;
46885;PMS5003;32622;48.202;11.326;2023-07-29T19:01:55;14;12;
46885;PMS5003;32622;48.202;11.326;2023-07-29T19:03:57;14;12;
46885;PMS5003;32622;48.202;11.326;2023-07-29T19:05:59;13;12;
46885;PMS5003;32622;48.202;11.326;2023-07-29T19:08:02;12;11;
46885;PMS5003;32622;48.202;11.326;2023-07-29T19:10:04;12;11;
46885;PMS5003;32622;48.202;11.326;2023-07-29T19:12:08;11;10;
46885;PMS5003;32622;48.202;11.326;2023-07-29T19:14:10;11;10;
46885;PMS5003;32622;48.202;11.326;2023-07-29T19:16:12;11;10;
46885;PMS5003;32622;48.202;11.326;2023-07-29T19:18:14;10;9;
46885;PMS5003;32622;48.202;11.326;2023-07-29T19:20:16;10;9;
46885;PMS5003;32622;48.202;11.326;2023-07-29T19:22:18;10;9;
46885;PMS5003;32622;48.202;11.326;2023-07-29T19:24:20;9;8;
46885;PMS5003;32622;48.202;11.326;2023-07-29T19:26:23;9;8;
46885;PMS5003;32622;48.202;11.326;2023-07-29T19:28:25;9;8;
46885;PMS5003;32622;48.202;11.326;2023-07-29T19:30:27;10;9;
46885;PMS5003;32622;48.202;11.326;2023-07-29T19:32:29;10;9;
46885;PMS5003;32622;48.202;11.326;2023-07-29T19:34:31;10;9;
46885;PMS5003;32622;48.202;11.326;2023-07-29T19:36:33;11;10;
46885;PMS5003;32622;48.202;11.326;2023-07-29T19:38:35;11;10;
46885;PMS5003;32622;48.202;11.326;2023-07-29T19:40:38;11;10;
46885;PMS5003;32622;48.202;11.326;2023-07-29T19:42:40;10;9;
46885;PMS5003;32622;48.202;11.326;2023-07-29T19:44:42;10;9;
46885;PMS5003;32622;48.202;11.326;2023-07-29T19:46:44;10;9;
46885;PMS5003;32622;48.202;11.326;2023-07-29T19:48:46;10;8;
46885;PMS5003;32622;48.202;11.326;2023-07-29T19:50:48;10;8;
46885;PMS5003;32622;48.202;11.326;2023-07-29T19:52:50;10;8;
46885;PMS5003;32622;48.202;11.326;2023-07-29T19:54:52;8;8;
46885;PMS5003;32622;48.202;11.326;2023-07-29T19:56:55;8;8;
46885;PMS5003;32622;48.202;11.326;2023-07-29T19:58:57;8;8;
46885;PMS5003;32622;48.202;11.326;2023-07-29T20:00:59;9;8;
46885;PMS5003;32622;48.202;11.326;2023-07-29T20:03:01;9;8;
46885;PMS5003;32622;48.202;11.326;2023-07-29T20:05:03;9;8;
46885;PMS5003;32622;48.202;11.326;2023-07-29T20:07:06;10;8;
46885;PMS5003;32622;48.202;11.326;2023-07-29T20:09:08;10;8;
46885;PMS5003;32622;48.202;11.326;2023-07-29T20:11:10;10;8;
46885;PMS5003;32622;48.202;11.326;2023-07-29T20:13:13;11;10;
46885;PMS5003;32622;48.202;11.326;2023-07-29T20:15:15;11;10;
46885;PMS5003;32622;48.202;11.326;2023-07-29T20:17:17;11;10;
46885;PMS5003;32622;48.202;11.326;2023-07-29T20:19:19;12;11;
46885;PMS5003;32622;48.202;11.326;2023-07-29T20:21:21;12;11;
46885;PMS5003;32622;48.202;11.326;2023-07-29T20:23:23;12;11;
46885;PMS5003;32622;48.202;11.326;2023-07-29T20:25:25;13;11;
46885;PMS5003;32622;48.202;11.326;2023-07-29T20:27:27;13;11;
46885;PMS5003;32622;48.202;11.326;2023-07-29T20:29:30;13;11;
46885;PMS5003;32622;48.202;11.326;2023-07-29T20:31:32;13;12;
46885;PMS5003;32622;48.202;11.326;2023-07-29T20:33:34;13;12;
46885;PMS5003;32622;48.202;11.326;2023-07-29T20:35:36;13;12;
46885;PMS5003;32622;48.202;11.326;2023-07-29T20:37:38;12;11;
46885;PMS5003;32622;48.202;11.326;2023-07-29T20:39:40;11;10;
46885;PMS5003;32622;48.202;11.326;2023-07-29T20:41:43;11;10;
46885;PMS5003;32622;48.202;11.326;2023-07-29T20:43:45;11;10;
46885;PMS5003;32622;48.202;11.326;2023-07-29T20:45:47;11;10;
46885;PMS5003;32622;48.202;11.326;2023-07-29T20:47:49;12;11;
46885;PMS5003;32622;48.202;11.326;2023-07-29T20:49:51;12;11;
46885;PMS5003;32622;48.202;11.326;2023-07-29T20:51:53;12;11;
46885;PMS5003;32622;48.202;11.326;2023-07-29T20:53:56;11;10;
46885;PMS5003;32622;48.202;11.326;2023-07-29T20:55:58;12;11;
46885;PMS5003;32622;48.202;11.326;2023-07-29T20:58:00;12;11;
46885;PMS5003;32622;48.202;11.326;2023-07-29T21:00:03;12;11;
46885;PMS5003;32622;48.202;11.326;2023-07-29T21:02:06;11;11;
46885;PMS5003;32622;48.202;11.326;2023-07-29T21:04:09;11;11;
46885;PMS5003;32622;48.202;11.326;2023-07-29T21:06:11;11;11;
46885;PMS5003;32622;48.202;11.326;2023-07-29T21:08:13;12;12;
46885;PMS5003;32622;48.202;11.326;2023-07-29T21:10:15;12;12;
46885;PMS5003;32622;48.202;11.326;2023-07-29T21:12:17;12;12;
46885;PMS5003;32622;48.202;11.326;2023-07-29T21:14:20;11;11;
46885;PMS5003;32622;48.202;11.326;2023-07-29T21:16:22;11;11;
46885;PMS5003;32622;48.202;11.326;2023-07-29T21:18:24;11;11;
46885;PMS5003;32622;48.202;11.326;2023-07-29T21:20:26;10;10;
46885;PMS5003;32622;48.202;11.326;2023-07-29T21:22:29;10;10;
46885;PMS5003;32622;48.202;11.326;2023-07-29T21:24:31;10;10;
46885;PMS5003;32622;48.202;11.326;2023-07-29T21:26:33;9;9;
46885;PMS5003;32622;48.202;11.326;2023-07-29T21:28:35;9;9;
46885;PMS5003;32622;48.202;11.326;2023-07-29T21:30:37;9;9;
46885;PMS5003;32622;48.202;11.326;2023-07-29T21:32:39;9;9;
46885;PMS5003;32622;48.202;11.326;2023-07-29T21:34:41;9;9;
46885;PMS5003;32622;48.202;11.326;2023-07-29T21:36:43;9;9;
46885;PMS5003;32622;48.202;11.326;2023-07-29T21:38:45;9;9;
46885;PMS5003;32622;48.202;11.326;2023-07-29T21:40:48;9;9;
46885;PMS5003;32622;48.202;11.326;2023-07-29T21:42:50;9;9;
46885;PMS5003;32622;48.202;11.326;2023-07-29T21:44:52;10;10;
46885;PMS5003;32622;48.202;11.326;2023-07-29T21:46:54;10;10;
46885;PMS5003;32622;48.202;11.326;2023-07-29T21:48:57;10;10;
46885;PMS5003;32622;48.202;11.326;2023-07-29T21:50:59;10;10;
46885;PMS5003;32622;48.202;11.326;2023-07-29T21:53:01;10;10;
46885;PMS5003;32622;48.202;11.326;2023-07-29T21:55:04;10;10;
46885;PMS5003;32622;48.202;11.326;2023-07-29T21:57:06;10;10;
46885;PMS5003;32622;48.202;11.326;2023-07-29T21:59:09;10;10;
46885;PMS5003;32622;48.202;11.326;2023-07-29T22:01:11;10;10;
46885;PMS5003;32622;48.202;11.326;2023-07-29T22:03:13;10;10;
46885;PMS5003;32622;48.202;11.326;2023-07-29T22:05:15;9;9;
46885;PMS5003;32622;48.202;11.326;2023-07-29T22:07:17;9;9;
46885;PMS5003;32622;48.202;11.326;2023-07-29T22:09:19;9;9;
46885;PMS5003;32622;48.202;11.326;2023-07-29T22:11:21;10;10;
46885;PMS5003;32622;48.202;11.326;2023-07-29T22:13:23;10;10;
46885;PMS5003;32622;48.202;11.326;2023-07-29T22:15:25;10;10;
46885;PMS5003;32622;48.202;11.326;2023-07-29T22:17:27;10;10;
46885;PMS5003;32622;48.202;11.326;2023-07-29T22:19:30;10;10;
46885;PMS5003;32622;48.202;11.326;2023-07-29T22:21:32;12;11;
46885;PMS5003;32622;48.202;11.326;2023-07-29T22:23:34;12;11;
46885;PMS5003;32622;48.202;11.326;2023-07-29T22:25:36;12;11;
46885;PMS5003;32622;48.202;11.326;2023-07-29T22:27:38;12;11;
46885;PMS5003;32622;48.202;11.326;2023-07-29T22:29:40;12;11;
46885;PMS5003;32622;48.202;11.326;2023-07-29T22:31:42;12;11;
46885;PMS5003;32622;48.202;11.326;2023-07-29T22:33:44;11;10;
46885;PMS5003;32622;48.202;11.326;2023-07-29T22:35:46;11;10;
46885;PMS5003;32622;48.202;11.326;2023-07-29T22:37:49;11;10;
46885;PMS5003;32622;48.202;11.326;2023-07-29T22:39:51;11;10;
46885;PMS5003;32622;48.202;11.326;2023-07-29T22:41:53;11;10;
46885;PMS5003;32622;48.202;11.326;2023-07-29T22:43:55;11;10;
46885;PMS5003;32622;48.202;11.326;2023-07-29T22:45:58;10;10;
46885;PMS5003;32622;48.202;11.326;2023-07-29T22:48:01;10;10;
46885;PMS5003;32622;48.202;11.326;2023-07-29T22:50:04;10;10;
46885;PMS5003;32622;48.202;11.326;2023-07-29T22:52:06;10;10;
46885;PMS5003;32622;48.202;11.326;2023-07-29T22:54:09;10;10;
46885;PMS5003;32622;48.202;11.326;2023-07-29T22:56:11;10;10;
46885;PMS5003;32622;48.202;11.326;2023-07-29T22:58:13;9;8;
46885;PMS5003;32622;48.202;11.326;2023-07-29T23:00:15;9;8;
46885;PMS5003;32622;48.202;11.326;2023-07-29T23:02:17;9;8;
46885;PMS5003;32622;48.202;11.326;2023-07-29T23:04:19;9;8;
46885;PMS5003;32622;48.202;11.326;2023-07-29T23:06:21;9;8;
46885;PMS5003;32622;48.202;11.326;2023-07-29T23:08:24;9;8;
46885;PMS5003;32622;48.202;11.326;2023-07-29T23:10:26;9;8;
46885;PMS5003;32622;48.202;11.326;2023-07-29T23:12:28;9;8;
46885;PMS5003;32622;48.202;11.326;2023-07-29T23:14:30;9;8;
46885;PMS5003;32622;48.202;11.326;2023-07-29T23:16:32;9;8;
46885;PMS5003;32622;48.202;11.326;2023-07-29T23:18:34;9;8;
46885;PMS5003;32622;48.202;11.326;2023-07-29T23:20:36;9;8;
46885;PMS5003;32622;48.202;11.326;2023-07-29T23:22:38;8;8;
46885;PMS5003;32622;48.202;11.326;2023-07-29T23:24:40;8;8;
46885;PMS5003;32622;48.202;11.326;2023-07-29T23:26:43;8;8;
46885;PMS5003;32622;48.202;11.326;2023-07-29T23:28:45;9;9;
46885;PMS5003;32622;48.202;11.326;2023-07-29T23:30:47;9;9;
46885;PMS5003;32622;48.202;11.326;2023-07-29T23:32:49;9;9;
46885;PMS5003;32622;48.202;11.326;2023-07-29T23:34:51;7;7;
46885;PMS5003;32622;48.202;11.326;2023-07-29T23:36:53;7;7;
46885;PMS5003;32622;48.202;11.326;2023-07-29T23:38:55;7;7;
46885;PMS5003;32622;48.202;11.326;2023-07-29T23:40:57;9;8;
46885;PMS5003;32622;48.202;11.326;2023-07-29T23:43:00;10;9;
46885;PMS5003;32622;48.202;11.326;2023-07-29T23:45:02;10;9;
46885;PMS5003;32622;48.202;11.326;2023-07-29T23:47:05;11;10;
46885;PMS5003;32622;48.202;11.326;2023-07-29T23:49:07;11;10;
46885;PMS5003;32622;48.202;11.326;2023-07-29T23:51:09;11;10;
46885;PMS5003;32622;48.202;11.326;2023-07-29T23:53:11;11;9;
46885;PMS5003;32622;48.202;11.326;2023-07-29T23:55:13;11;9;
46885;PMS5003;32622;48.202;11.326;2023-07-29T23:57:15;10;8;
46885;PMS5003;32622;48.202;11.326;2023-07-29T23:59:18;10;9;
